sensor_id;sensor_type;location;lat;lon;timestamp;P1;durP1;ratioP1;P2;durP2;ratioP2
22606;SDS011;11470;20.968;105.834;2023-02-15T00:03:01;30.48;;;17.23;;
22606;SDS011;11470;20.968;105.834;2023-02-15T00:08:07;29.80;;;17.17;;
22606;SDS011;11470;20.968;105.834;2023-02-15T00:13:12;32.75;;;19.10;;
22606;SDS011;11470;20.968;105.834;2023-02-15T00:18:17;35.53;;;21.40;;
22606;SDS011;11470;20.968;105.834;2023-02-15T00:23:23;30.27;;;18.13;;
22606;SDS011;11470;20.968;105.834;2023-02-15T00:28:29;27.17;;;13.27;;
22606;SDS011;11470;20.968;105.834;2023-02-15T00:38:40;25.95;;;14.48;;
22606;SDS011;11470;20.968;105.834;2023-02-15T00:43:45;36.17;;;20.67;;
22606;SDS011;11470;20.968;105.834;2023-02-15T00:48:50;33.20;;;20.75;;
22606;SDS011;11470;20.968;105.834;2023-02-15T00:53:56;33.97;;;21.45;;
22606;SDS011;11470;20.968;105.834;2023-02-15T00:59:04;30.77;;;16.55;;
22606;SDS011;11470;20.968;105.834;2023-02-15T01:04:10;32.78;;;17.80;;
22606;SDS011;11470;20.968;105.834;2023-02-15T01:09:15;32.13;;;18.27;;
22606;SDS011;11470;20.968;105.834;2023-02-15T01:14:22;32.30;;;18.48;;
22606;SDS011;11470;20.968;105.834;2023-02-15T01:19:42;32.97;;;22.48;;
22606;SDS011;11470;20.968;105.834;2023-02-15T01:24:49;37.63;;;20.10;;
22606;SDS011;11470;20.968;105.834;2023-02-15T01:29:55;22.85;;;13.05;;
22606;SDS011;11470;20.968;105.834;2023-02-15T01:35:01;27.20;;;14.33;;
22606;SDS011;11470;20.968;105.834;2023-02-15T01:40:08;30.92;;;16.25;;
22606;SDS011;11470;20.968;105.834;2023-02-15T01:45:28;32.75;;;20.90;;
22606;SDS011;11470;20.968;105.834;2023-02-15T01:50:40;31.65;;;15.55;;
22606;SDS011;11470;20.968;105.834;2023-02-15T01:56:01;25.27;;;15.40;;
22606;SDS011;11470;20.968;105.834;2023-02-15T02:01:23;36.72;;;22.65;;
22606;SDS011;11470;20.968;105.834;2023-02-15T02:06:32;36.75;;;21.00;;
22606;SDS011;11470;20.968;105.834;2023-02-15T02:11:40;35.65;;;19.48;;
22606;SDS011;11470;20.968;105.834;2023-02-15T02:27:50;36.75;;;21.25;;
22606;SDS011;11470;20.968;105.834;2023-02-15T02:33:29;33.95;;;19.58;;
22606;SDS011;11470;20.968;105.834;2023-02-15T02:49:37;31.52;;;19.13;;
22606;SDS011;11470;20.968;105.834;2023-02-15T02:54:44;38.95;;;18.83;;
22606;SDS011;11470;20.968;105.834;2023-02-15T02:59:50;35.28;;;21.23;;
22606;SDS011;11470;20.968;105.834;2023-02-15T03:04:59;35.28;;;19.90;;
22606;SDS011;11470;20.968;105.834;2023-02-15T03:10:10;36.38;;;20.95;;
22606;SDS011;11470;20.968;105.834;2023-02-15T03:15:21;34.63;;;20.75;;
22606;SDS011;11470;20.968;105.834;2023-02-15T03:20:31;34.30;;;20.45;;
22606;SDS011;11470;20.968;105.834;2023-02-15T03:25:42;34.33;;;15.65;;
22606;SDS011;11470;20.968;105.834;2023-02-15T03:30:51;32.72;;;18.55;;
22606;SDS011;11470;20.968;105.834;2023-02-15T03:36:08;28.38;;;14.65;;
22606;SDS011;11470;20.968;105.834;2023-02-15T03:41:57;36.60;;;18.58;;
22606;SDS011;11470;20.968;105.834;2023-02-15T03:47:11;34.97;;;20.30;;
22606;SDS011;11470;20.968;105.834;2023-02-15T03:52:21;30.65;;;17.65;;
22606;SDS011;11470;20.968;105.834;2023-02-15T03:57:30;16.48;;;8.55;;
22606;SDS011;11470;20.968;105.834;2023-02-15T04:08:24;20.45;;;9.65;;
22606;SDS011;11470;20.968;105.834;2023-02-15T04:13:49;24.25;;;13.80;;
22606;SDS011;11470;20.968;105.834;2023-02-15T04:19:00;36.22;;;19.95;;
22606;SDS011;11470;20.968;105.834;2023-02-15T04:24:25;36.47;;;20.95;;
22606;SDS011;11470;20.968;105.834;2023-02-15T04:29:49;32.67;;;16.85;;
22606;SDS011;11470;20.968;105.834;2023-02-15T04:34:55;37.67;;;21.27;;
22606;SDS011;11470;20.968;105.834;2023-02-15T04:40:01;21.43;;;10.97;;
22606;SDS011;11470;20.968;105.834;2023-02-15T04:50:12;34.40;;;17.33;;
22606;SDS011;11470;20.968;105.834;2023-02-15T04:55:18;17.00;;;8.87;;
22606;SDS011;11470;20.968;105.834;2023-02-15T05:00:23;33.67;;;19.93;;
22606;SDS011;11470;20.968;105.834;2023-02-15T05:05:29;27.60;;;12.90;;
22606;SDS011;11470;20.968;105.834;2023-02-15T05:10:34;32.87;;;17.93;;
22606;SDS011;11470;20.968;105.834;2023-02-15T05:15:40;22.63;;;10.20;;
22606;SDS011;11470;20.968;105.834;2023-02-15T05:20:46;25.52;;;10.88;;
22606;SDS011;11470;20.968;105.834;2023-02-15T05:25:52;21.15;;;11.90;;
22606;SDS011;11470;20.968;105.834;2023-02-15T05:31:18;35.80;;;20.75;;
22606;SDS011;11470;20.968;105.834;2023-02-15T05:36:24;33.90;;;19.48;;
22606;SDS011;11470;20.968;105.834;2023-02-15T05:41:30;32.77;;;17.67;;
22606;SDS011;11470;20.968;105.834;2023-02-15T05:46:35;34.70;;;21.90;;
22606;SDS011;11470;20.968;105.834;2023-02-15T05:51:50;39.20;;;19.90;;
22606;SDS011;11470;20.968;105.834;2023-02-15T05:56:56;32.50;;;19.93;;
22606;SDS011;11470;20.968;105.834;2023-02-15T06:02:02;32.03;;;18.80;;
22606;SDS011;11470;20.968;105.834;2023-02-15T06:07:11;28.77;;;15.40;;
22606;SDS011;11470;20.968;105.834;2023-02-15T06:12:20;40.83;;;22.40;;
22606;SDS011;11470;20.968;105.834;2023-02-15T06:17:25;33.15;;;17.30;;
22606;SDS011;11470;20.968;105.834;2023-02-15T06:22:31;29.10;;;17.35;;
22606;SDS011;11470;20.968;105.834;2023-02-15T06:27:36;34.07;;;19.47;;
22606;SDS011;11470;20.968;105.834;2023-02-15T06:32:45;36.38;;;21.80;;
22606;SDS011;11470;20.968;105.834;2023-02-15T06:37:50;37.97;;;21.43;;
22606;SDS011;11470;20.968;105.834;2023-02-15T06:42:56;35.07;;;20.70;;
22606;SDS011;11470;20.968;105.834;2023-02-15T06:48:01;37.23;;;21.47;;
22606;SDS011;11470;20.968;105.834;2023-02-15T06:53:07;27.37;;;16.47;;
22606;SDS011;11470;20.968;105.834;2023-02-15T06:58:12;38.80;;;23.87;;
22606;SDS011;11470;20.968;105.834;2023-02-15T07:03:18;36.88;;;22.08;;
22606;SDS011;11470;20.968;105.834;2023-02-15T07:08:24;37.33;;;23.10;;
22606;SDS011;11470;20.968;105.834;2023-02-15T07:13:30;35.90;;;18.95;;
22606;SDS011;11470;20.968;105.834;2023-02-15T07:18:35;35.93;;;22.47;;
22606;SDS011;11470;20.968;105.834;2023-02-15T07:23:41;39.60;;;23.60;;
22606;SDS011;11470;20.968;105.834;2023-02-15T07:28:47;39.40;;;23.87;;
22606;SDS011;11470;20.968;105.834;2023-02-15T07:33:54;38.53;;;20.15;;
22606;SDS011;11470;20.968;105.834;2023-02-15T07:44:04;37.20;;;21.95;;
22606;SDS011;11470;20.968;105.834;2023-02-15T07:49:13;39.30;;;24.20;;
22606;SDS011;11470;20.968;105.834;2023-02-15T07:54:19;40.05;;;22.92;;
22606;SDS011;11470;20.968;105.834;2023-02-15T07:59:24;42.50;;;24.40;;
22606;SDS011;11470;20.968;105.834;2023-02-15T08:04:30;41.63;;;20.90;;
22606;SDS011;11470;20.968;105.834;2023-02-15T08:09:36;43.13;;;24.17;;
22606;SDS011;11470;20.968;105.834;2023-02-15T08:14:41;42.33;;;23.00;;
22606;SDS011;11470;20.968;105.834;2023-02-15T08:19:49;43.92;;;24.55;;
22606;SDS011;11470;20.968;105.834;2023-02-15T08:25:04;37.10;;;20.02;;
22606;SDS011;11470;20.968;105.834;2023-02-15T08:30:09;43.87;;;22.43;;
22606;SDS011;11470;20.968;105.834;2023-02-15T08:35:16;43.28;;;25.35;;
22606;SDS011;11470;20.968;105.834;2023-02-15T08:40:24;41.85;;;25.58;;
22606;SDS011;11470;20.968;105.834;2023-02-15T08:45:30;47.70;;;24.75;;
22606;SDS011;11470;20.968;105.834;2023-02-15T08:50:35;44.15;;;26.45;;
22606;SDS011;11470;20.968;105.834;2023-02-15T08:55:41;40.63;;;24.37;;
22606;SDS011;11470;20.968;105.834;2023-02-15T09:00:46;46.07;;;26.67;;
22606;SDS011;11470;20.968;105.834;2023-02-15T09:05:56;45.10;;;23.30;;
22606;SDS011;11470;20.968;105.834;2023-02-15T09:11:08;47.38;;;27.42;;
22606;SDS011;11470;20.968;105.834;2023-02-15T09:16:15;43.95;;;25.30;;
22606;SDS011;11470;20.968;105.834;2023-02-15T09:21:21;41.85;;;25.50;;
22606;SDS011;11470;20.968;105.834;2023-02-15T09:26:30;44.60;;;25.15;;
22606;SDS011;11470;20.968;105.834;2023-02-15T09:31:43;47.92;;;26.33;;
22606;SDS011;11470;20.968;105.834;2023-02-15T09:36:51;44.10;;;26.38;;
22606;SDS011;11470;20.968;105.834;2023-02-15T09:42:05;47.78;;;27.45;;
22606;SDS011;11470;20.968;105.834;2023-02-15T09:47:49;46.95;;;26.77;;
22606;SDS011;11470;20.968;105.834;2023-02-15T09:58:40;49.63;;;27.58;;
22606;SDS011;11470;20.968;105.834;2023-02-15T10:15:17;46.13;;;27.40;;
22606;SDS011;11470;20.968;105.834;2023-02-15T10:26:21;46.95;;;28.20;;
22606;SDS011;11470;20.968;105.834;2023-02-15T10:36:57;48.80;;;28.50;;
22606;SDS011;11470;20.968;105.834;2023-02-15T10:48:04;45.50;;;26.70;;
22606;SDS011;11470;20.968;105.834;2023-02-15T11:09:56;46.83;;;26.43;;
22606;SDS011;11470;20.968;105.834;2023-02-15T11:25:53;45.05;;;28.25;;
22606;SDS011;11470;20.968;105.834;2023-02-15T11:31:32;54.05;;;28.45;;
22606;SDS011;11470;20.968;105.834;2023-02-15T11:36:54;47.60;;;27.65;;
22606;SDS011;11470;20.968;105.834;2023-02-15T11:42:13;47.83;;;27.45;;
22606;SDS011;11470;20.968;105.834;2023-02-15T11:47:22;53.45;;;30.00;;
22606;SDS011;11470;20.968;105.834;2023-02-15T11:52:28;47.60;;;27.73;;
22606;SDS011;11470;20.968;105.834;2023-02-15T11:57:38;50.53;;;29.13;;
22606;SDS011;11470;20.968;105.834;2023-02-15T12:02:50;50.63;;;29.38;;
22606;SDS011;11470;20.968;105.834;2023-02-15T12:08:03;46.97;;;28.83;;
22606;SDS011;11470;20.968;105.834;2023-02-15T12:13:23;50.92;;;28.48;;
22606;SDS011;11470;20.968;105.834;2023-02-15T12:23:48;50.75;;;30.15;;
22606;SDS011;11470;20.968;105.834;2023-02-15T12:29:00;46.30;;;29.50;;
22606;SDS011;11470;20.968;105.834;2023-02-15T12:34:29;46.35;;;26.20;;
22606;SDS011;11470;20.968;105.834;2023-02-15T12:39:37;49.80;;;28.45;;
22606;SDS011;11470;20.968;105.834;2023-02-15T12:45:03;52.58;;;29.45;;
22606;SDS011;11470;20.968;105.834;2023-02-15T12:50:26;51.10;;;28.60;;
22606;SDS011;11470;20.968;105.834;2023-02-15T12:55:36;57.72;;;32.20;;
22606;SDS011;11470;20.968;105.834;2023-02-15T13:01:01;55.42;;;32.33;;
22606;SDS011;11470;20.968;105.834;2023-02-15T13:06:13;46.92;;;26.10;;
22606;SDS011;11470;20.968;105.834;2023-02-15T13:11:30;46.40;;;26.08;;
22606;SDS011;11470;20.968;105.834;2023-02-15T13:16:38;49.17;;;27.05;;
22606;SDS011;11470;20.968;105.834;2023-02-15T13:21:47;46.47;;;27.02;;
22606;SDS011;11470;20.968;105.834;2023-02-15T13:27:15;48.88;;;28.67;;
22606;SDS011;11470;20.968;105.834;2023-02-15T14:28:42;27.83;;;14.57;;
22606;SDS011;11470;20.968;105.834;2023-02-15T14:34:07;31.65;;;16.05;;
22606;SDS011;11470;20.968;105.834;2023-02-15T14:50:46;40.65;;;21.08;;
22606;SDS011;11470;20.968;105.834;2023-02-15T15:01:31;45.92;;;26.55;;
22606;SDS011;11470;20.968;105.834;2023-02-15T15:06:41;50.50;;;25.85;;
22606;SDS011;11470;20.968;105.834;2023-02-15T15:11:54;39.53;;;20.08;;
22606;SDS011;11470;20.968;105.834;2023-02-15T15:28:59;49.40;;;26.80;;
22606;SDS011;11470;20.968;105.834;2023-02-15T15:41:53;47.67;;;24.58;;
22606;SDS011;11470;20.968;105.834;2023-02-15T15:54:12;45.75;;;27.60;;
22606;SDS011;11470;20.968;105.834;2023-02-15T15:59:31;46.58;;;25.75;;
22606;SDS011;11470;20.968;105.834;2023-02-15T16:04:47;45.10;;;23.13;;
22606;SDS011;11470;20.968;105.834;2023-02-15T16:15:23;44.92;;;26.90;;
22606;SDS011;11470;20.968;105.834;2023-02-15T16:20:45;52.63;;;27.33;;
22606;SDS011;11470;20.968;105.834;2023-02-15T16:37:37;50.10;;;27.95;;
22606;SDS011;11470;20.968;105.834;2023-02-15T16:42:55;51.35;;;27.33;;
22606;SDS011;11470;20.968;105.834;2023-02-15T16:48:27;47.55;;;26.98;;
22606;SDS011;11470;20.968;105.834;2023-02-15T16:53:32;47.42;;;27.65;;
22606;SDS011;11470;20.968;105.834;2023-02-15T16:58:40;51.30;;;27.17;;
22606;SDS011;11470;20.968;105.834;2023-02-15T17:03:50;48.70;;;27.33;;
22606;SDS011;11470;20.968;105.834;2023-02-15T17:09:19;47.88;;;28.00;;
22606;SDS011;11470;20.968;105.834;2023-02-15T17:14:39;48.78;;;28.67;;
22606;SDS011;11470;20.968;105.834;2023-02-15T17:19:49;49.40;;;26.57;;
22606;SDS011;11470;20.968;105.834;2023-02-15T17:24:58;50.42;;;28.85;;
22606;SDS011;11470;20.968;105.834;2023-02-15T17:30:17;43.17;;;27.27;;
22606;SDS011;11470;20.968;105.834;2023-02-15T17:35:36;49.25;;;28.77;;
22606;SDS011;11470;20.968;105.834;2023-02-15T17:40:42;48.55;;;28.17;;
22606;SDS011;11470;20.968;105.834;2023-02-15T17:45:51;55.45;;;29.17;;
22606;SDS011;11470;20.968;105.834;2023-02-15T17:50:58;47.35;;;27.77;;
22606;SDS011;11470;20.968;105.834;2023-02-15T17:56:07;48.72;;;28.30;;
22606;SDS011;11470;20.968;105.834;2023-02-15T18:01:17;46.53;;;29.30;;
22606;SDS011;11470;20.968;105.834;2023-02-15T18:06:43;47.08;;;27.85;;
22606;SDS011;11470;20.968;105.834;2023-02-15T18:12:26;47.17;;;28.65;;
22606;SDS011;11470;20.968;105.834;2023-02-15T18:17:45;45.65;;;28.60;;
22606;SDS011;11470;20.968;105.834;2023-02-15T18:22:52;48.80;;;28.63;;
22606;SDS011;11470;20.968;105.834;2023-02-15T18:27:57;45.13;;;27.07;;
22606;SDS011;11470;20.968;105.834;2023-02-15T18:33:02;46.75;;;28.38;;
22606;SDS011;11470;20.968;105.834;2023-02-15T18:38:08;48.13;;;30.20;;
22606;SDS011;11470;20.968;105.834;2023-02-15T18:43:16;47.72;;;29.35;;
22606;SDS011;11470;20.968;105.834;2023-02-15T18:48:21;46.63;;;27.95;;
22606;SDS011;11470;20.968;105.834;2023-02-15T18:53:27;45.78;;;28.33;;
22606;SDS011;11470;20.968;105.834;2023-02-15T18:58:33;50.95;;;30.00;;
22606;SDS011;11470;20.968;105.834;2023-02-15T19:03:39;53.20;;;33.72;;
22606;SDS011;11470;20.968;105.834;2023-02-15T19:08:44;57.67;;;34.60;;
22606;SDS011;11470;20.968;105.834;2023-02-15T19:13:52;59.65;;;36.53;;
22606;SDS011;11470;20.968;105.834;2023-02-15T19:18:58;65.17;;;37.17;;
22606;SDS011;11470;20.968;105.834;2023-02-15T19:24:06;60.77;;;36.47;;
22606;SDS011;11470;20.968;105.834;2023-02-15T19:29:27;66.43;;;39.33;;
22606;SDS011;11470;20.968;105.834;2023-02-15T19:34:33;74.90;;;42.60;;
22606;SDS011;11470;20.968;105.834;2023-02-15T19:39:39;64.13;;;39.10;;
22606;SDS011;11470;20.968;105.834;2023-02-15T19:44:45;73.32;;;43.25;;
22606;SDS011;11470;20.968;105.834;2023-02-15T19:49:51;66.50;;;38.27;;
22606;SDS011;11470;20.968;105.834;2023-02-15T19:55:02;65.93;;;38.88;;
22606;SDS011;11470;20.968;105.834;2023-02-15T20:00:16;67.18;;;38.67;;
22606;SDS011;11470;20.968;105.834;2023-02-15T20:05:24;71.93;;;41.85;;
22606;SDS011;11470;20.968;105.834;2023-02-15T20:10:31;73.10;;;41.90;;
22606;SDS011;11470;20.968;105.834;2023-02-15T20:15:37;68.13;;;40.70;;
22606;SDS011;11470;20.968;105.834;2023-02-15T20:20:45;73.78;;;40.05;;
22606;SDS011;11470;20.968;105.834;2023-02-15T20:25:59;68.40;;;39.55;;
22606;SDS011;11470;20.968;105.834;2023-02-15T20:31:22;66.72;;;38.20;;
22606;SDS011;11470;20.968;105.834;2023-02-15T20:36:28;63.75;;;37.30;;
22606;SDS011;11470;20.968;105.834;2023-02-15T20:41:34;65.17;;;37.40;;
22606;SDS011;11470;20.968;105.834;2023-02-15T20:46:42;65.75;;;37.08;;
22606;SDS011;11470;20.968;105.834;2023-02-15T20:51:48;60.07;;;35.57;;
22606;SDS011;11470;20.968;105.834;2023-02-15T20:56:55;62.67;;;36.60;;
22606;SDS011;11470;20.968;105.834;2023-02-15T21:02:01;66.13;;;38.50;;
22606;SDS011;11470;20.968;105.834;2023-02-15T21:07:20;68.43;;;38.47;;
22606;SDS011;11470;20.968;105.834;2023-02-15T21:12:26;68.28;;;39.38;;
22606;SDS011;11470;20.968;105.834;2023-02-15T21:17:34;66.18;;;37.42;;
22606;SDS011;11470;20.968;105.834;2023-02-15T21:22:39;66.88;;;38.47;;
22606;SDS011;11470;20.968;105.834;2023-02-15T21:27:44;70.05;;;40.40;;
22606;SDS011;11470;20.968;105.834;2023-02-15T21:32:50;75.93;;;41.27;;
22606;SDS011;11470;20.968;105.834;2023-02-15T21:37:55;64.47;;;36.97;;
22606;SDS011;11470;20.968;105.834;2023-02-15T21:49:01;74.97;;;44.77;;
22606;SDS011;11470;20.968;105.834;2023-02-15T21:54:13;82.88;;;47.72;;
22606;SDS011;11470;20.968;105.834;2023-02-15T21:59:20;84.57;;;49.00;;
22606;SDS011;11470;20.968;105.834;2023-02-15T22:04:26;80.50;;;46.10;;
22606;SDS011;11470;20.968;105.834;2023-02-15T22:09:33;74.50;;;43.15;;
22606;SDS011;11470;20.968;105.834;2023-02-15T22:14:39;73.53;;;44.60;;
22606;SDS011;11470;20.968;105.834;2023-02-15T22:19:49;69.85;;;39.92;;
22606;SDS011;11470;20.968;105.834;2023-02-15T22:24:58;70.55;;;41.45;;
22606;SDS011;11470;20.968;105.834;2023-02-15T22:30:05;72.70;;;40.00;;
22606;SDS011;11470;20.968;105.834;2023-02-15T22:35:23;67.65;;;42.50;;
22606;SDS011;11470;20.968;105.834;2023-02-15T22:40:33;69.15;;;41.65;;
22606;SDS011;11470;20.968;105.834;2023-02-15T22:45:39;71.65;;;42.00;;
22606;SDS011;11470;20.968;105.834;2023-02-15T22:50:44;70.05;;;39.28;;
22606;SDS011;11470;20.968;105.834;2023-02-15T22:55:53;62.03;;;35.75;;
22606;SDS011;11470;20.968;105.834;2023-02-15T23:01:17;59.95;;;33.95;;
22606;SDS011;11470;20.968;105.834;2023-02-15T23:06:33;67.03;;;40.80;;
22606;SDS011;11470;20.968;105.834;2023-02-15T23:11:39;63.05;;;39.65;;
22606;SDS011;11470;20.968;105.834;2023-02-15T23:21:50;65.40;;;38.75;;
22606;SDS011;11470;20.968;105.834;2023-02-15T23:26:55;60.08;;;35.50;;
22606;SDS011;11470;20.968;105.834;2023-02-15T23:32:21;67.60;;;36.72;;
22606;SDS011;11470;20.968;105.834;2023-02-15T23:37:26;65.73;;;36.53;;
22606;SDS011;11470;20.968;105.834;2023-02-15T23:42:32;63.15;;;33.67;;
22606;SDS011;11470;20.968;105.834;2023-02-15T23:47:38;67.80;;;42.22;;
22606;SDS011;11470;20.968;105.834;2023-02-15T23:53:02;79.03;;;46.28;;
22606;SDS011;11470;20.968;105.834;2023-02-15T23:58:15;64.30;;;36.60;;
